sensor_id;sensor_type;location;lat;lon;timestamp;P1;durP1;ratioP1;P2;durP2;ratioP2
9888;SDS011;4983;42.112;24.738;2024-01-15T00:02:11;56.47;;;26.05;;
9888;SDS011;4983;42.112;24.738;2024-01-15T00:04:40;57.85;;;27.73;;
9888;SDS011;4983;42.112;24.738;2024-01-15T00:07:06;64.15;;;28.77;;
9888;SDS011;4983;42.112;24.738;2024-01-15T00:09:32;64.25;;;29.80;;
9888;SDS011;4983;42.112;24.738;2024-01-15T00:11:58;62.45;;;27.67;;
9888;SDS011;4983;42.112;24.738;2024-01-15T00:14:25;58.60;;;28.85;;
9888;SDS011;4983;42.112;24.738;2024-01-15T00:16:51;46.90;;;23.55;;
9888;SDS011;4983;42.112;24.738;2024-01-15T00:19:16;47.58;;;23.90;;
9888;SDS011;4983;42.112;24.738;2024-01-15T00:21:43;54.78;;;23.77;;
9888;SDS011;4983;42.112;24.738;2024-01-15T00:24:09;47.45;;;22.83;;
9888;SDS011;4983;42.112;24.738;2024-01-15T00:26:35;47.90;;;21.48;;
9888;SDS011;4983;42.112;24.738;2024-01-15T00:29:00;51.75;;;23.80;;
9888;SDS011;4983;42.112;24.738;2024-01-15T00:31:26;42.85;;;21.67;;
9888;SDS011;4983;42.112;24.738;2024-01-15T00:33:51;44.25;;;22.23;;
9888;SDS011;4983;42.112;24.738;2024-01-15T00:36:17;41.90;;;21.58;;
9888;SDS011;4983;42.112;24.738;2024-01-15T00:38:43;43.47;;;21.55;;
9888;SDS011;4983;42.112;24.738;2024-01-15T00:41:09;47.60;;;20.25;;
9888;SDS011;4983;42.112;24.738;2024-01-15T00:43:35;47.13;;;22.65;;
9888;SDS011;4983;42.112;24.738;2024-01-15T00:46:03;48.05;;;23.83;;
9888;SDS011;4983;42.112;24.738;2024-01-15T00:48:29;43.50;;;22.75;;
9888;SDS011;4983;42.112;24.738;2024-01-15T00:50:55;49.05;;;23.45;;
9888;SDS011;4983;42.112;24.738;2024-01-15T00:53:20;52.50;;;24.63;;
9888;SDS011;4983;42.112;24.738;2024-01-15T00:55:47;52.83;;;22.02;;
9888;SDS011;4983;42.112;24.738;2024-01-15T00:58:15;49.08;;;24.13;;
9888;SDS011;4983;42.112;24.738;2024-01-15T01:00:41;43.05;;;20.83;;
9888;SDS011;4983;42.112;24.738;2024-01-15T01:03:07;49.13;;;22.90;;
9888;SDS011;4983;42.112;24.738;2024-01-15T01:05:34;45.00;;;22.00;;
9888;SDS011;4983;42.112;24.738;2024-01-15T01:08:00;51.72;;;24.02;;
9888;SDS011;4983;42.112;24.738;2024-01-15T01:10:25;48.45;;;22.63;;
9888;SDS011;4983;42.112;24.738;2024-01-15T01:12:51;55.00;;;23.40;;
9888;SDS011;4983;42.112;24.738;2024-01-15T01:15:17;47.90;;;21.55;;
9888;SDS011;4983;42.112;24.738;2024-01-15T01:17:42;45.63;;;22.10;;
9888;SDS011;4983;42.112;24.738;2024-01-15T01:20:08;51.40;;;21.73;;
9888;SDS011;4983;42.112;24.738;2024-01-15T01:22:35;41.00;;;20.70;;
9888;SDS011;4983;42.112;24.738;2024-01-15T01:25:01;44.50;;;22.85;;
9888;SDS011;4983;42.112;24.738;2024-01-15T01:27:27;41.17;;;19.75;;
9888;SDS011;4983;42.112;24.738;2024-01-15T01:29:52;42.55;;;18.60;;
9888;SDS011;4983;42.112;24.738;2024-01-15T01:32:18;35.83;;;18.20;;
9888;SDS011;4983;42.112;24.738;2024-01-15T01:34:43;36.83;;;20.65;;
9888;SDS011;4983;42.112;24.738;2024-01-15T01:37:09;47.63;;;22.00;;
9888;SDS011;4983;42.112;24.738;2024-01-15T01:39:37;38.28;;;19.00;;
9888;SDS011;4983;42.112;24.738;2024-01-15T01:42:03;49.20;;;20.83;;
9888;SDS011;4983;42.112;24.738;2024-01-15T01:44:29;42.15;;;20.27;;
9888;SDS011;4983;42.112;24.738;2024-01-15T01:46:54;44.70;;;20.23;;
9888;SDS011;4983;42.112;24.738;2024-01-15T01:49:22;41.65;;;19.58;;
9888;SDS011;4983;42.112;24.738;2024-01-15T01:51:48;46.40;;;21.90;;
9888;SDS011;4983;42.112;24.738;2024-01-15T01:54:13;49.85;;;21.10;;
9888;SDS011;4983;42.112;24.738;2024-01-15T01:56:40;47.20;;;25.63;;
9888;SDS011;4983;42.112;24.738;2024-01-15T01:59:07;45.78;;;20.70;;
9888;SDS011;4983;42.112;24.738;2024-01-15T02:01:34;44.40;;;20.95;;
9888;SDS011;4983;42.112;24.738;2024-01-15T02:04:00;41.22;;;20.13;;
9888;SDS011;4983;42.112;24.738;2024-01-15T02:06:26;46.28;;;21.35;;
9888;SDS011;4983;42.112;24.738;2024-01-15T02:08:52;40.50;;;19.52;;
9888;SDS011;4983;42.112;24.738;2024-01-15T02:11:18;45.25;;;20.73;;
9888;SDS011;4983;42.112;24.738;2024-01-15T02:13:44;44.80;;;21.90;;
9888;SDS011;4983;42.112;24.738;2024-01-15T02:16:09;54.95;;;22.15;;
9888;SDS011;4983;42.112;24.738;2024-01-15T02:18:41;51.95;;;24.95;;
9888;SDS011;4983;42.112;24.738;2024-01-15T02:21:08;48.42;;;21.88;;
9888;SDS011;4983;42.112;24.738;2024-01-15T02:23:34;39.97;;;19.45;;
9888;SDS011;4983;42.112;24.738;2024-01-15T02:25:59;83.45;;;19.15;;
9888;SDS011;4983;42.112;24.738;2024-01-15T02:28:25;41.10;;;18.83;;
9888;SDS011;4983;42.112;24.738;2024-01-15T02:30:51;44.05;;;18.80;;
9888;SDS011;4983;42.112;24.738;2024-01-15T02:33:17;32.63;;;16.02;;
9888;SDS011;4983;42.112;24.738;2024-01-15T02:35:42;36.55;;;16.38;;
9888;SDS011;4983;42.112;24.738;2024-01-15T02:38:08;38.25;;;17.88;;
9888;SDS011;4983;42.112;24.738;2024-01-15T02:40:34;37.28;;;18.08;;
9888;SDS011;4983;42.112;24.738;2024-01-15T02:43:00;43.47;;;18.08;;
9888;SDS011;4983;42.112;24.738;2024-01-15T02:45:26;41.83;;;18.40;;
9888;SDS011;4983;42.112;24.738;2024-01-15T02:47:52;43.15;;;20.05;;
9888;SDS011;4983;42.112;24.738;2024-01-15T02:50:17;42.20;;;21.02;;
9888;SDS011;4983;42.112;24.738;2024-01-15T02:52:43;40.70;;;17.60;;
9888;SDS011;4983;42.112;24.738;2024-01-15T02:55:08;46.40;;;20.13;;
9888;SDS011;4983;42.112;24.738;2024-01-15T02:57:34;57.45;;;22.40;;
9888;SDS011;4983;42.112;24.738;2024-01-15T03:00:00;46.45;;;21.00;;
9888;SDS011;4983;42.112;24.738;2024-01-15T03:02:25;48.35;;;21.77;;
9888;SDS011;4983;42.112;24.738;2024-01-15T03:04:51;44.90;;;21.35;;
9888;SDS011;4983;42.112;24.738;2024-01-15T03:07:17;45.67;;;21.52;;
9888;SDS011;4983;42.112;24.738;2024-01-15T03:09:42;42.20;;;20.83;;
9888;SDS011;4983;42.112;24.738;2024-01-15T03:12:09;52.17;;;23.58;;
9888;SDS011;4983;42.112;24.738;2024-01-15T03:14:36;41.88;;;21.17;;
9888;SDS011;4983;42.112;24.738;2024-01-15T03:17:01;46.95;;;22.50;;
9888;SDS011;4983;42.112;24.738;2024-01-15T03:19:27;43.92;;;21.70;;
9888;SDS011;4983;42.112;24.738;2024-01-15T03:21:53;46.53;;;22.50;;
9888;SDS011;4983;42.112;24.738;2024-01-15T03:24:18;48.10;;;21.48;;
9888;SDS011;4983;42.112;24.738;2024-01-15T03:26:44;40.78;;;19.17;;
9888;SDS011;4983;42.112;24.738;2024-01-15T03:29:09;48.47;;;20.27;;
9888;SDS011;4983;42.112;24.738;2024-01-15T03:31:35;48.53;;;20.02;;
9888;SDS011;4983;42.112;24.738;2024-01-15T03:34:00;45.38;;;20.75;;
9888;SDS011;4983;42.112;24.738;2024-01-15T03:36:26;47.67;;;20.27;;
9888;SDS011;4983;42.112;24.738;2024-01-15T03:38:51;46.50;;;20.25;;
9888;SDS011;4983;42.112;24.738;2024-01-15T03:41:17;42.70;;;21.05;;
9888;SDS011;4983;42.112;24.738;2024-01-15T03:43:42;38.70;;;21.83;;
9888;SDS011;4983;42.112;24.738;2024-01-15T03:46:08;42.85;;;18.73;;
9888;SDS011;4983;42.112;24.738;2024-01-15T03:48:34;39.10;;;20.95;;
9888;SDS011;4983;42.112;24.738;2024-01-15T03:50:59;43.55;;;19.50;;
9888;SDS011;4983;42.112;24.738;2024-01-15T03:53:25;39.85;;;21.63;;
9888;SDS011;4983;42.112;24.738;2024-01-15T03:55:51;42.95;;;19.13;;
9888;SDS011;4983;42.112;24.738;2024-01-15T03:58:17;40.80;;;20.45;;
9888;SDS011;4983;42.112;24.738;2024-01-15T04:00:43;42.53;;;19.20;;
9888;SDS011;4983;42.112;24.738;2024-01-15T04:03:08;42.95;;;21.77;;
9888;SDS011;4983;42.112;24.738;2024-01-15T04:05:34;52.17;;;21.85;;
9888;SDS011;4983;42.112;24.738;2024-01-15T04:08:00;42.78;;;21.65;;
9888;SDS011;4983;42.112;24.738;2024-01-15T04:10:26;36.47;;;17.45;;
9888;SDS011;4983;42.112;24.738;2024-01-15T04:12:51;41.72;;;21.30;;
9888;SDS011;4983;42.112;24.738;2024-01-15T04:15:17;43.45;;;20.95;;
9888;SDS011;4983;42.112;24.738;2024-01-15T04:17:42;43.88;;;22.42;;
9888;SDS011;4983;42.112;24.738;2024-01-15T04:20:08;74.03;;;26.05;;
9888;SDS011;4983;42.112;24.738;2024-01-15T04:22:34;71.95;;;28.85;;
9888;SDS011;4983;42.112;24.738;2024-01-15T04:25:00;63.65;;;26.77;;
9888;SDS011;4983;42.112;24.738;2024-01-15T04:27:26;61.85;;;25.85;;
9888;SDS011;4983;42.112;24.738;2024-01-15T04:29:52;72.18;;;27.42;;
9888;SDS011;4983;42.112;24.738;2024-01-15T04:32:18;55.42;;;24.80;;
9888;SDS011;4983;42.112;24.738;2024-01-15T04:34:43;60.65;;;26.77;;
9888;SDS011;4983;42.112;24.738;2024-01-15T04:37:09;50.20;;;25.10;;
9888;SDS011;4983;42.112;24.738;2024-01-15T04:39:34;56.13;;;26.08;;
9888;SDS011;4983;42.112;24.738;2024-01-15T04:42:00;57.60;;;24.15;;
9888;SDS011;4983;42.112;24.738;2024-01-15T04:44:25;49.65;;;23.38;;
9888;SDS011;4983;42.112;24.738;2024-01-15T04:46:51;66.35;;;25.35;;
9888;SDS011;4983;42.112;24.738;2024-01-15T04:49:16;57.95;;;23.90;;
9888;SDS011;4983;42.112;24.738;2024-01-15T04:51:42;53.78;;;24.33;;
9888;SDS011;4983;42.112;24.738;2024-01-15T04:54:07;53.05;;;25.20;;
9888;SDS011;4983;42.112;24.738;2024-01-15T04:56:33;47.88;;;23.23;;
9888;SDS011;4983;42.112;24.738;2024-01-15T04:58:58;51.97;;;23.85;;
9888;SDS011;4983;42.112;24.738;2024-01-15T05:01:24;49.58;;;24.27;;
9888;SDS011;4983;42.112;24.738;2024-01-15T05:03:49;50.78;;;26.58;;
9888;SDS011;4983;42.112;24.738;2024-01-15T05:06:15;53.92;;;25.02;;
9888;SDS011;4983;42.112;24.738;2024-01-15T05:08:40;57.03;;;23.95;;
9888;SDS011;4983;42.112;24.738;2024-01-15T05:11:06;45.70;;;23.83;;
9888;SDS011;4983;42.112;24.738;2024-01-15T05:13:31;85.03;;;39.15;;
9888;SDS011;4983;42.112;24.738;2024-01-15T05:15:57;68.07;;;31.98;;
9888;SDS011;4983;42.112;24.738;2024-01-15T05:18:23;50.60;;;27.25;;
9888;SDS011;4983;42.112;24.738;2024-01-15T05:20:48;52.72;;;25.90;;
9888;SDS011;4983;42.112;24.738;2024-01-15T05:23:13;58.25;;;27.92;;
9888;SDS011;4983;42.112;24.738;2024-01-15T05:25:39;62.92;;;23.25;;
9888;SDS011;4983;42.112;24.738;2024-01-15T05:28:05;53.80;;;24.88;;
9888;SDS011;4983;42.112;24.738;2024-01-15T05:30:31;49.25;;;24.80;;
9888;SDS011;4983;42.112;24.738;2024-01-15T05:32:57;56.83;;;24.83;;
9888;SDS011;4983;42.112;24.738;2024-01-15T05:35:26;77.68;;;29.40;;
9888;SDS011;4983;42.112;24.738;2024-01-15T05:37:51;64.07;;;26.27;;
9888;SDS011;4983;42.112;24.738;2024-01-15T05:40:17;59.40;;;25.10;;
9888;SDS011;4983;42.112;24.738;2024-01-15T05:42:42;51.17;;;24.80;;
9888;SDS011;4983;42.112;24.738;2024-01-15T05:45:08;59.35;;;24.13;;
9888;SDS011;4983;42.112;24.738;2024-01-15T05:47:34;62.13;;;25.70;;
9888;SDS011;4983;42.112;24.738;2024-01-15T05:50:00;79.82;;;30.67;;
9888;SDS011;4983;42.112;24.738;2024-01-15T05:52:26;72.38;;;30.27;;
9888;SDS011;4983;42.112;24.738;2024-01-15T05:54:51;63.03;;;28.77;;
9888;SDS011;4983;42.112;24.738;2024-01-15T05:57:17;68.75;;;32.30;;
9888;SDS011;4983;42.112;24.738;2024-01-15T05:59:44;67.45;;;30.40;;
9888;SDS011;4983;42.112;24.738;2024-01-15T06:02:10;55.20;;;23.98;;
9888;SDS011;4983;42.112;24.738;2024-01-15T06:04:35;59.80;;;27.00;;
9888;SDS011;4983;42.112;24.738;2024-01-15T06:07:01;66.00;;;26.80;;
9888;SDS011;4983;42.112;24.738;2024-01-15T06:09:26;55.97;;;26.70;;
9888;SDS011;4983;42.112;24.738;2024-01-15T06:11:53;57.88;;;25.35;;
9888;SDS011;4983;42.112;24.738;2024-01-15T06:14:18;66.90;;;26.13;;
9888;SDS011;4983;42.112;24.738;2024-01-15T06:16:44;60.60;;;29.55;;
9888;SDS011;4983;42.112;24.738;2024-01-15T06:19:09;70.00;;;26.75;;
9888;SDS011;4983;42.112;24.738;2024-01-15T06:21:35;65.05;;;29.38;;
9888;SDS011;4983;42.112;24.738;2024-01-15T06:24:00;70.80;;;26.55;;
9888;SDS011;4983;42.112;24.738;2024-01-15T06:26:26;61.45;;;27.60;;
9888;SDS011;4983;42.112;24.738;2024-01-15T06:28:51;65.32;;;31.30;;
9888;SDS011;4983;42.112;24.738;2024-01-15T06:31:17;59.10;;;27.73;;
9888;SDS011;4983;42.112;24.738;2024-01-15T06:33:42;71.20;;;27.08;;
9888;SDS011;4983;42.112;24.738;2024-01-15T06:36:08;71.28;;;28.65;;
9888;SDS011;4983;42.112;24.738;2024-01-15T06:38:33;65.68;;;28.33;;
9888;SDS011;4983;42.112;24.738;2024-01-15T06:40:59;66.28;;;29.58;;
9888;SDS011;4983;42.112;24.738;2024-01-15T06:43:25;64.97;;;29.75;;
9888;SDS011;4983;42.112;24.738;2024-01-15T06:45:50;57.90;;;27.25;;
9888;SDS011;4983;42.112;24.738;2024-01-15T06:48:16;71.43;;;29.50;;
9888;SDS011;4983;42.112;24.738;2024-01-15T06:50:42;76.90;;;29.73;;
9888;SDS011;4983;42.112;24.738;2024-01-15T06:53:08;60.38;;;28.33;;
9888;SDS011;4983;42.112;24.738;2024-01-15T06:55:34;66.07;;;27.25;;
9888;SDS011;4983;42.112;24.738;2024-01-15T06:57:59;61.28;;;28.17;;
9888;SDS011;4983;42.112;24.738;2024-01-15T07:00:25;63.13;;;30.02;;
9888;SDS011;4983;42.112;24.738;2024-01-15T07:02:51;82.53;;;37.45;;
9888;SDS011;4983;42.112;24.738;2024-01-15T07:05:17;71.93;;;31.15;;
9888;SDS011;4983;42.112;24.738;2024-01-15T07:07:42;56.50;;;27.23;;
9888;SDS011;4983;42.112;24.738;2024-01-15T07:10:08;63.30;;;27.27;;
9888;SDS011;4983;42.112;24.738;2024-01-15T07:12:34;61.17;;;27.75;;
9888;SDS011;4983;42.112;24.738;2024-01-15T07:14:59;55.25;;;26.92;;
9888;SDS011;4983;42.112;24.738;2024-01-15T07:17:25;64.07;;;26.50;;
9888;SDS011;4983;42.112;24.738;2024-01-15T07:19:51;51.35;;;25.38;;
9888;SDS011;4983;42.112;24.738;2024-01-15T07:22:16;52.50;;;25.55;;
9888;SDS011;4983;42.112;24.738;2024-01-15T07:24:42;56.08;;;28.25;;
9888;SDS011;4983;42.112;24.738;2024-01-15T07:27:08;59.47;;;27.33;;
9888;SDS011;4983;42.112;24.738;2024-01-15T07:29:34;53.95;;;25.23;;
9888;SDS011;4983;42.112;24.738;2024-01-15T07:32:02;50.78;;;24.40;;
9888;SDS011;4983;42.112;24.738;2024-01-15T07:34:28;52.13;;;26.17;;
9888;SDS011;4983;42.112;24.738;2024-01-15T07:36:54;52.35;;;26.77;;
9888;SDS011;4983;42.112;24.738;2024-01-15T07:39:19;44.38;;;22.15;;
9888;SDS011;4983;42.112;24.738;2024-01-15T07:41:45;55.42;;;25.02;;
9888;SDS011;4983;42.112;24.738;2024-01-15T07:44:11;60.28;;;25.92;;
9888;SDS011;4983;42.112;24.738;2024-01-15T07:46:36;53.00;;;27.50;;
9888;SDS011;4983;42.112;24.738;2024-01-15T07:49:02;54.25;;;26.95;;
9888;SDS011;4983;42.112;24.738;2024-01-15T07:51:28;52.05;;;25.98;;
9888;SDS011;4983;42.112;24.738;2024-01-15T07:53:54;49.30;;;26.20;;
9888;SDS011;4983;42.112;24.738;2024-01-15T07:56:22;61.95;;;25.65;;
9888;SDS011;4983;42.112;24.738;2024-01-15T07:58:48;49.63;;;21.95;;
9888;SDS011;4983;42.112;24.738;2024-01-15T08:01:13;65.38;;;24.77;;
9888;SDS011;4983;42.112;24.738;2024-01-15T08:03:38;54.08;;;23.63;;
9888;SDS011;4983;42.112;24.738;2024-01-15T08:06:05;48.22;;;23.73;;
9888;SDS011;4983;42.112;24.738;2024-01-15T08:08:30;48.40;;;23.55;;
9888;SDS011;4983;42.112;24.738;2024-01-15T08:10:56;45.83;;;22.83;;
9888;SDS011;4983;42.112;24.738;2024-01-15T08:13:21;51.53;;;25.95;;
9888;SDS011;4983;42.112;24.738;2024-01-15T08:15:47;44.42;;;24.92;;
9888;SDS011;4983;42.112;24.738;2024-01-15T08:18:12;51.83;;;26.75;;
9888;SDS011;4983;42.112;24.738;2024-01-15T08:20:38;53.33;;;26.35;;
9888;SDS011;4983;42.112;24.738;2024-01-15T08:23:04;51.97;;;25.63;;
9888;SDS011;4983;42.112;24.738;2024-01-15T08:25:29;48.22;;;24.83;;
9888;SDS011;4983;42.112;24.738;2024-01-15T08:27:58;47.60;;;24.85;;
9888;SDS011;4983;42.112;24.738;2024-01-15T08:30:23;49.90;;;25.80;;
9888;SDS011;4983;42.112;24.738;2024-01-15T08:32:56;65.32;;;27.88;;
9888;SDS011;4983;42.112;24.738;2024-01-15T08:35:21;67.32;;;31.63;;
9888;SDS011;4983;42.112;24.738;2024-01-15T08:37:48;66.10;;;33.60;;
9888;SDS011;4983;42.112;24.738;2024-01-15T08:40:15;79.45;;;37.72;;
9888;SDS011;4983;42.112;24.738;2024-01-15T08:42:41;68.65;;;34.10;;
9888;SDS011;4983;42.112;24.738;2024-01-15T08:45:06;58.72;;;26.67;;
9888;SDS011;4983;42.112;24.738;2024-01-15T08:47:32;56.38;;;26.15;;
9888;SDS011;4983;42.112;24.738;2024-01-15T08:49:58;57.28;;;28.50;;
9888;SDS011;4983;42.112;24.738;2024-01-15T08:52:24;55.25;;;26.85;;
9888;SDS011;4983;42.112;24.738;2024-01-15T08:54:49;49.75;;;24.90;;
9888;SDS011;4983;42.112;24.738;2024-01-15T08:57:15;55.65;;;26.38;;
9888;SDS011;4983;42.112;24.738;2024-01-15T08:59:41;53.58;;;23.88;;
9888;SDS011;4983;42.112;24.738;2024-01-15T09:02:07;54.58;;;21.83;;
9888;SDS011;4983;42.112;24.738;2024-01-15T09:04:33;52.97;;;23.40;;
9888;SDS011;4983;42.112;24.738;2024-01-15T09:06:58;63.03;;;26.52;;
9888;SDS011;4983;42.112;24.738;2024-01-15T09:09:24;52.70;;;24.42;;
9888;SDS011;4983;42.112;24.738;2024-01-15T09:11:51;49.28;;;23.58;;
9888;SDS011;4983;42.112;24.738;2024-01-15T09:14:16;70.75;;;29.08;;
9888;SDS011;4983;42.112;24.738;2024-01-15T09:16:42;65.03;;;24.80;;
9888;SDS011;4983;42.112;24.738;2024-01-15T09:19:08;51.97;;;25.50;;
9888;SDS011;4983;42.112;24.738;2024-01-15T09:21:33;49.10;;;22.60;;
9888;SDS011;4983;42.112;24.738;2024-01-15T09:23:59;52.33;;;24.42;;
9888;SDS011;4983;42.112;24.738;2024-01-15T09:26:25;52.28;;;24.33;;
9888;SDS011;4983;42.112;24.738;2024-01-15T09:28:51;68.38;;;29.50;;
9888;SDS011;4983;42.112;24.738;2024-01-15T09:31:17;56.28;;;26.33;;
9888;SDS011;4983;42.112;24.738;2024-01-15T09:33:43;65.65;;;27.95;;
9888;SDS011;4983;42.112;24.738;2024-01-15T09:36:09;59.30;;;25.08;;
9888;SDS011;4983;42.112;24.738;2024-01-15T09:38:34;60.03;;;25.55;;
9888;SDS011;4983;42.112;24.738;2024-01-15T09:41:00;61.38;;;27.38;;
9888;SDS011;4983;42.112;24.738;2024-01-15T09:43:26;54.42;;;26.52;;
9888;SDS011;4983;42.112;24.738;2024-01-15T09:45:51;46.05;;;24.20;;
9888;SDS011;4983;42.112;24.738;2024-01-15T09:48:19;47.05;;;23.48;;
9888;SDS011;4983;42.112;24.738;2024-01-15T09:50:45;48.63;;;23.67;;
9888;SDS011;4983;42.112;24.738;2024-01-15T09:53:10;46.95;;;22.65;;
9888;SDS011;4983;42.112;24.738;2024-01-15T09:55:38;43.15;;;22.05;;
9888;SDS011;4983;42.112;24.738;2024-01-15T09:58:04;47.53;;;24.27;;
9888;SDS011;4983;42.112;24.738;2024-01-15T10:00:30;47.85;;;24.55;;
9888;SDS011;4983;42.112;24.738;2024-01-15T10:02:57;46.25;;;22.02;;
9888;SDS011;4983;42.112;24.738;2024-01-15T10:05:25;44.42;;;21.65;;
9888;SDS011;4983;42.112;24.738;2024-01-15T10:07:52;40.95;;;20.35;;
9888;SDS011;4983;42.112;24.738;2024-01-15T10:10:19;43.63;;;19.40;;
9888;SDS011;4983;42.112;24.738;2024-01-15T10:12:47;51.75;;;20.73;;
9888;SDS011;4983;42.112;24.738;2024-01-15T10:15:12;43.65;;;20.35;;
9888;SDS011;4983;42.112;24.738;2024-01-15T10:17:38;47.78;;;21.05;;
9888;SDS011;4983;42.112;24.738;2024-01-15T10:20:11;43.92;;;20.63;;
9888;SDS011;4983;42.112;24.738;2024-01-15T10:22:43;40.97;;;20.33;;
9888;SDS011;4983;42.112;24.738;2024-01-15T10:25:13;45.08;;;21.10;;
9888;SDS011;4983;42.112;24.738;2024-01-15T10:27:42;41.00;;;20.60;;
9888;SDS011;4983;42.112;24.738;2024-01-15T10:30:08;47.45;;;22.73;;
9888;SDS011;4983;42.112;24.738;2024-01-15T10:32:39;45.67;;;23.63;;
9888;SDS011;4983;42.112;24.738;2024-01-15T10:35:06;44.22;;;25.10;;
9888;SDS011;4983;42.112;24.738;2024-01-15T10:37:33;51.85;;;25.08;;
9888;SDS011;4983;42.112;24.738;2024-01-15T10:40:01;46.35;;;23.98;;
9888;SDS011;4983;42.112;24.738;2024-01-15T10:42:30;56.92;;;26.23;;
9888;SDS011;4983;42.112;24.738;2024-01-15T10:44:55;52.85;;;26.60;;
9888;SDS011;4983;42.112;24.738;2024-01-15T10:47:21;48.03;;;21.50;;
9888;SDS011;4983;42.112;24.738;2024-01-15T10:49:47;41.22;;;21.63;;
9888;SDS011;4983;42.112;24.738;2024-01-15T10:52:13;37.40;;;20.52;;
9888;SDS011;4983;42.112;24.738;2024-01-15T10:54:40;36.50;;;20.08;;
9888;SDS011;4983;42.112;24.738;2024-01-15T10:57:08;36.88;;;19.85;;
9888;SDS011;4983;42.112;24.738;2024-01-15T10:59:34;35.30;;;18.10;;
9888;SDS011;4983;42.112;24.738;2024-01-15T11:02:01;35.00;;;17.10;;
9888;SDS011;4983;42.112;24.738;2024-01-15T11:04:27;35.20;;;17.48;;
9888;SDS011;4983;42.112;24.738;2024-01-15T11:06:53;35.92;;;19.25;;
9888;SDS011;4983;42.112;24.738;2024-01-15T11:09:20;38.10;;;20.83;;
9888;SDS011;4983;42.112;24.738;2024-01-15T11:11:46;39.38;;;22.50;;
9888;SDS011;4983;42.112;24.738;2024-01-15T11:17:01;36.63;;;19.92;;
9888;SDS011;4983;42.112;24.738;2024-01-15T11:19:46;39.53;;;22.50;;
9888;SDS011;4983;42.112;24.738;2024-01-15T11:24:56;34.72;;;16.70;;
9888;SDS011;4983;42.112;24.738;2024-01-15T11:27:44;35.70;;;20.85;;
9888;SDS011;4983;42.112;24.738;2024-01-15T11:30:20;32.63;;;17.42;;
9888;SDS011;4983;42.112;24.738;2024-01-15T11:32:50;35.33;;;20.65;;
9888;SDS011;4983;42.112;24.738;2024-01-15T11:35:16;34.85;;;19.55;;
9888;SDS011;4983;42.112;24.738;2024-01-15T11:40:49;29.45;;;17.65;;
9888;SDS011;4983;42.112;24.738;2024-01-15T11:43:10;44.50;;;18.38;;
9888;SDS011;4983;42.112;24.738;2024-01-15T11:45:38;29.92;;;17.35;;
9888;SDS011;4983;42.112;24.738;2024-01-15T11:50:35;30.85;;;13.13;;
9888;SDS011;4983;42.112;24.738;2024-01-15T11:53:05;32.20;;;14.90;;
9888;SDS011;4983;42.112;24.738;2024-01-15T11:55:41;30.65;;;14.85;;
9888;SDS011;4983;42.112;24.738;2024-01-15T11:58:10;30.52;;;16.95;;
9888;SDS011;4983;42.112;24.738;2024-01-15T12:00:42;32.10;;;16.27;;
9888;SDS011;4983;42.112;24.738;2024-01-15T12:03:10;34.60;;;18.48;;
9888;SDS011;4983;42.112;24.738;2024-01-15T12:05:39;26.13;;;14.27;;
9888;SDS011;4983;42.112;24.738;2024-01-15T12:08:07;34.03;;;13.77;;
9888;SDS011;4983;42.112;24.738;2024-01-15T12:10:41;32.85;;;15.35;;
9888;SDS011;4983;42.112;24.738;2024-01-15T12:15:38;27.90;;;16.38;;
9888;SDS011;4983;42.112;24.738;2024-01-15T12:18:06;23.77;;;14.30;;
9888;SDS011;4983;42.112;24.738;2024-01-15T12:20:33;28.63;;;15.20;;
9888;SDS011;4983;42.112;24.738;2024-01-15T12:22:59;32.53;;;17.02;;
9888;SDS011;4983;42.112;24.738;2024-01-15T12:25:26;31.83;;;14.98;;
9888;SDS011;4983;42.112;24.738;2024-01-15T12:27:52;37.30;;;15.93;;
9888;SDS011;4983;42.112;24.738;2024-01-15T12:30:18;30.55;;;17.55;;
9888;SDS011;4983;42.112;24.738;2024-01-15T12:32:44;31.98;;;16.92;;
9888;SDS011;4983;42.112;24.738;2024-01-15T12:35:11;32.17;;;15.88;;
9888;SDS011;4983;42.112;24.738;2024-01-15T12:37:37;34.15;;;16.98;;
9888;SDS011;4983;42.112;24.738;2024-01-15T12:40:04;67.43;;;19.52;;
9888;SDS011;4983;42.112;24.738;2024-01-15T12:42:32;52.00;;;17.75;;
9888;SDS011;4983;42.112;24.738;2024-01-15T12:44:59;45.33;;;17.85;;
9888;SDS011;4983;42.112;24.738;2024-01-15T12:47:25;43.90;;;17.83;;
9888;SDS011;4983;42.112;24.738;2024-01-15T12:49:54;39.08;;;18.13;;
9888;SDS011;4983;42.112;24.738;2024-01-15T12:52:20;39.03;;;17.23;;
9888;SDS011;4983;42.112;24.738;2024-01-15T12:54:49;58.92;;;18.90;;
9888;SDS011;4983;42.112;24.738;2024-01-15T12:57:15;83.53;;;21.75;;
9888;SDS011;4983;42.112;24.738;2024-01-15T12:59:41;53.20;;;18.15;;
9888;SDS011;4983;42.112;24.738;2024-01-15T13:02:06;33.00;;;15.93;;
9888;SDS011;4983;42.112;24.738;2024-01-15T13:04:32;38.33;;;16.45;;
9888;SDS011;4983;42.112;24.738;2024-01-15T13:06:57;39.47;;;16.20;;
9888;SDS011;4983;42.112;24.738;2024-01-15T13:09:23;32.38;;;18.10;;
9888;SDS011;4983;42.112;24.738;2024-01-15T13:11:48;39.45;;;15.93;;
9888;SDS011;4983;42.112;24.738;2024-01-15T13:14:14;36.63;;;16.13;;
9888;SDS011;4983;42.112;24.738;2024-01-15T13:16:40;32.85;;;18.35;;
9888;SDS011;4983;42.112;24.738;2024-01-15T13:19:09;36.47;;;15.77;;
9888;SDS011;4983;42.112;24.738;2024-01-15T13:21:39;64.60;;;25.65;;
9888;SDS011;4983;42.112;24.738;2024-01-15T13:24:07;58.67;;;26.25;;
9888;SDS011;4983;42.112;24.738;2024-01-15T13:26:33;48.60;;;26.65;;
9888;SDS011;4983;42.112;24.738;2024-01-15T13:29:02;50.92;;;26.17;;
9888;SDS011;4983;42.112;24.738;2024-01-15T13:31:31;50.63;;;25.25;;
9888;SDS011;4983;42.112;24.738;2024-01-15T13:33:57;50.25;;;25.73;;
9888;SDS011;4983;42.112;24.738;2024-01-15T13:36:23;58.72;;;27.05;;
9888;SDS011;4983;42.112;24.738;2024-01-15T13:38:50;53.38;;;27.40;;
9888;SDS011;4983;42.112;24.738;2024-01-15T13:41:16;54.15;;;28.40;;
9888;SDS011;4983;42.112;24.738;2024-01-15T13:43:45;61.33;;;27.98;;
9888;SDS011;4983;42.112;24.738;2024-01-15T13:46:11;56.50;;;28.58;;
9888;SDS011;4983;42.112;24.738;2024-01-15T13:48:36;56.17;;;26.92;;
9888;SDS011;4983;42.112;24.738;2024-01-15T13:51:02;50.08;;;25.75;;
9888;SDS011;4983;42.112;24.738;2024-01-15T13:53:28;48.17;;;24.80;;
9888;SDS011;4983;42.112;24.738;2024-01-15T13:55:54;52.30;;;27.70;;
9888;SDS011;4983;42.112;24.738;2024-01-15T13:58:20;53.40;;;25.50;;
9888;SDS011;4983;42.112;24.738;2024-01-15T14:00:46;56.40;;;27.73;;
9888;SDS011;4983;42.112;24.738;2024-01-15T14:03:12;57.22;;;28.00;;
9888;SDS011;4983;42.112;24.738;2024-01-15T14:05:37;54.33;;;26.42;;
9888;SDS011;4983;42.112;24.738;2024-01-15T14:08:03;57.97;;;26.52;;
9888;SDS011;4983;42.112;24.738;2024-01-15T14:10:29;52.72;;;24.58;;
9888;SDS011;4983;42.112;24.738;2024-01-15T14:12:55;53.80;;;26.20;;
9888;SDS011;4983;42.112;24.738;2024-01-15T14:15:20;49.95;;;26.10;;
9888;SDS011;4983;42.112;24.738;2024-01-15T14:17:46;49.42;;;25.67;;
9888;SDS011;4983;42.112;24.738;2024-01-15T14:20:12;55.35;;;26.20;;
9888;SDS011;4983;42.112;24.738;2024-01-15T14:22:38;78.50;;;25.60;;
9888;SDS011;4983;42.112;24.738;2024-01-15T14:25:03;69.30;;;26.92;;
9888;SDS011;4983;42.112;24.738;2024-01-15T14:27:29;98.45;;;26.85;;
9888;SDS011;4983;42.112;24.738;2024-01-15T14:29:55;52.50;;;24.23;;
9888;SDS011;4983;42.112;24.738;2024-01-15T14:32:20;54.63;;;25.42;;
9888;SDS011;4983;42.112;24.738;2024-01-15T14:34:46;59.03;;;23.80;;
9888;SDS011;4983;42.112;24.738;2024-01-15T14:37:12;56.08;;;24.25;;
9888;SDS011;4983;42.112;24.738;2024-01-15T14:39:37;59.20;;;24.40;;
9888;SDS011;4983;42.112;24.738;2024-01-15T14:42:03;87.93;;;28.30;;